Hlavní strana
METAR-TAF:

METAR-TAF

Letiště :

Gran Canaria, Španělsko

Letiště Gran Canaria

zeměpisná šířka: 27-56N, zeměpisná délka: 015-23W, výška: 23 m

Aktuální stav počasí

Zpráva byla vytvořena před 34 minutami, v 21:30 UTC
Severní vítr 18 kt
Teplota 19°C
Vlhkost vzduchu 68%
Tlak 1021 hPa
Viditelnost 10 km a více
Oblačno až skoro zataženo ve výšce 2800 ft

METAR: GCLP 252130Z 36018KT 9999 BKN028 19/13 Q1021 NOSIG

Čas: 23:04 (22:04 UTC)

Předpověď počasí

Zpráva byla vytvořena před 2 hodinami a 4 minutami, v 20:00 UTC
Předpověď platná od 25 v 21 UTC do 26 v 21 UTC
Severní vítr 24 kt
Viditelnost 10 km a více
Skoro jasno ve výšce 3000 ft
Pravděpodobnost 40% :
Dočasný
od 25 v 22 UTC do 26 v 08 UTC
Severní vítr 14 kt
Dočasný
od 26 v 12 UTC do 26 v 18 UTC
Severní vítr 25 kt s nárazy do 35 kt

TAF: GCLP 252000Z 2521/2621 36024KT 9999 FEW030 TX23/2614Z TN17/2605Z PROB40 TEMPO 2522/2608 36014KT TEMPO 2612/2618 36025G35KT

Stav a předpovědi počasí z více než 4 000 letišť (zprávy METAR a TAF).

Červené a žluté tečky na mapě představují dostupné meteorologické stanice.

Když kurzor umístíte na tečku, zobrazí se název stanice.

Pak kliknutím zobrazíte stav a předpověď počasí.

Chcete-li změnit mapu, kliknutím na zelené tlačítko se znaménkem +mapu přiblížíte, kliknutím na zelené tlačítko se znaménkem – mapu oddálíte a kliknutím na zelené šipky přejdete na sousední mapy.


METAR-TAF: